• Join FlightAware (Why Join?)
  • Login
  • US Flag 
01:43AM EDT


 

Airport Tracker/Info


-or-


 

Live Flight TrackerFlight Track Log ✈ N400PU ✈ 26-Nov-2012 ✈ KDAL - KLAF

Flight Track Log - Related Links

Times and Time Zones

All times are in EST time to prevent confusion due to time zone crossing. See the N400PU flight status page for this flight to view local times or setup timezone preferences in your user account.

Time Position Orientation Groundspeed Altitude Reporting Facility
EST Latitude Longitude Course Direction KTS MPH feet Rate Location/Type
10:45PM 32.8644 -96.8669 69° East 155 178 2,000  Level FAA TRACON SMA TRACON (SMA)
10:46PM 32.8728 -96.8803 307° West 163 188 2,900 1,860 Climbing FAA TRACON SMA TRACON (SMA)
10:46PM 32.8836 -96.8925 317° Northwest 175 201 3,300 1,920 Climbing FAA TRACON SMA TRACON (SMA)
10:46PM 32.9028 -96.8917 North 191 220 4,200 2,280 Climbing FAA TRACON SMA TRACON (SMA)
10:47PM 32.9167 -96.8803 35° Northeast 197 227 4,800 1,860 Climbing FAA TRACON SMA TRACON (SMA)
10:47PM 32.9269 -96.8628 55° Northeast 208 239 5,500 2,040 Climbing FAA TRACON SMA TRACON (SMA)
10:47PM 32.9342 -96.8364 72° East 218 251 6,200 2,100 Climbing FAA TRACON SMA TRACON (SMA)
10:48PM 32.9403 -96.8142 72° East 226 260 6,900 1,800 Climbing FAA TRACON SMA TRACON (SMA)
10:48PM 32.9472 -96.7911 70° East 236 272 7,400 1,800 Climbing FAA TRACON SMA TRACON (SMA)
10:48PM 32.9572 -96.7608 69° East 253 291 8,100 2,100 Climbing FAA TRACON SMA TRACON (SMA)
10:49PM 32.9653 -96.7356 69° East 262 302 8,800 2,220 Climbing FAA TRACON SMA TRACON (SMA)
10:49PM 32.9731 -96.7100 70° East 266 306 9,600 2,400 Climbing FAA TRACON SMA TRACON (SMA)
10:49PM 32.9833 -96.6767 70° East 277 319 10,400 2,100 Climbing FAA TRACON SMA TRACON (SMA)
10:50PM 32.9917 -96.6494 70° East 284 327 11,000 1,920 Climbing FAA TRACON SMA TRACON (SMA)
10:50PM 33.0000 -96.6208 71° East 294 338 11,700 2,220 Climbing FAA TRACON SMA TRACON (SMA)
10:50PM 33.0111 -96.5839 70° East 305 351 12,500 2,400 Climbing FAA TRACON SMA TRACON (SMA)
10:51PM 33.0008 -96.5677 69° East  Level FlightAware Approximate
10:51PM 33.0203 -96.5547 69° East 308 354 13,300  Level FAA TRACON SMA TRACON (SMA)
10:51PM 33.0289 -96.5247 71° East 311 358 14,100 2,700 Climbing FAA TRACON SMA TRACON (SMA)
10:51PM 33.0408 -96.4881 69° East 309 356 15,100 2,520 Climbing FAA TRACON SMA TRACON (SMA)
10:52PM 33.0497 -96.4589 70° East 306 352 15,800 2,220 Climbing FAA TRACON SMA TRACON (SMA)
10:52PM 33.0586 -96.4294 70° East 305 351 16,600 2,220 Climbing FAA TRACON SMA TRACON (SMA)
10:52PM 33.0703 -96.3928 69° East 308 354 17,300 1,800 Climbing FAA TRACON SMA TRACON (SMA)
10:53PM 33.0792 -96.3622 71° East 314 361 17,800 1,320 Climbing FAA TRACON SMA TRACON (SMA)
10:53PM 33.0881 -96.3314 71° East 318 366 18,200 1,500 Climbing FAA TRACON SMA TRACON (SMA)
10:53PM 33.0994 -96.2922 71° East 323 372 18,800 1,560 Climbing FAA TRACON SMA TRACON (SMA)
10:54PM 33.1100 -96.2606 68° East 333 383 19,300 1,260 Climbing FAA TRACON SMA TRACON (SMA)
10:54PM 33.1194 -96.2269 71° East 344 396 19,700 1,620 Climbing FAA TRACON SMA TRACON (SMA)
10:54PM 33.1322 -96.1839 70° East 354 407 20,400 1,800 Climbing FAA TRACON SMA TRACON (SMA)
10:55PM 33.1428 -96.1494 70° East 362 417 20,900 1,500 Climbing FAA TRACON SMA TRACON (SMA)
10:55PM 33.1542 -96.1144 69° East 366 421 21,400 1,800 Climbing FAA TRACON SMA TRACON (SMA)
10:55PM 33.1681 -96.0697 70° East 371 427 22,100 1,800 Climbing FAA TRACON SMA TRACON (SMA)
10:56PM 33.1786 -96.0333 71° East 376 433 22,600 1,500 Climbing FAA TRACON SMA TRACON (SMA)
10:56PM 33.1894 -95.9967 71° East 380 437 23,100 1,800 Climbing FAA TRACON SMA TRACON (SMA)
10:56PM 33.2042 -95.9508 69° East 383 441 23,800 1,740 Climbing FAA TRACON SMA TRACON (SMA)
10:57PM 33.2156 -95.9136 70° East 388 447 24,300 1,380 Climbing FAA TRACON SMA TRACON (SMA)
10:57PM 33.2286 -95.8439 77° East 392 451 25,200 1,320 Climbing Fort Worth Center
10:58PM 33.2667 -95.7167 70° East 397 457 26,500 1,260 Climbing Fort Worth Center
10:59PM 33.3022 -95.5817 72° East 391 450 27,800 1,140 Climbing Fort Worth Center
11:00PM 33.3400 -95.4592 70° East 386 444 28,800 900 Climbing Fort Worth Center
11:01PM 33.3756 -95.3339 71° East 386 444 29,700 840 Climbing Fort Worth Center
11:02PM 33.4111 -95.2061 72° East 386 444 30,500 900 Climbing Fort Worth Center
11:03PM 33.4506 -95.0756 70° East 397 457 31,500 960 Climbing Fort Worth Center
11:04PM 33.4875 -94.9403 72° East 411 473 32,500 720 Climbing Fort Worth Center
11:05PM 33.5267 -94.8069 71° East 417 480 33,000 540 Climbing Fort Worth Center
11:06PM 33.5653 -94.6639 72° East 424 488 33,600 660 Climbing Fort Worth Center
11:07PM 33.6078 -94.5178 71° East 446 513 34,400 720 Climbing Fort Worth Center
11:08PM 33.6503 -94.3717 71° East 451 519 35,100 600 Climbing Fort Worth Center
11:09PM 33.6944 -94.2206 71° East 461 531 35,700 660 Climbing Fort Worth Center
11:10PM 33.7581 -94.0925 59° Northeast 464 534 36,400 780 Climbing Memphis Center
11:11PM 33.8181 -93.9675 60° Northeast 496 571 37,300 780 Climbing Memphis Center
11:12PM 33.8800 -93.8375 60° Northeast 467 537 38,000 600 Climbing Memphis Center
11:13PM 33.9464 -93.7050 59° Northeast 454 522 38,500 420 Climbing Memphis Center
11:14PM 34.0083 -93.5744 60° Northeast 454 522 38,900 240 Climbing Memphis Center
11:15PM 34.0742 -93.4417 59° Northeast 454 522 39,000  Climbing Memphis Center
11:16PM 34.1400 -93.3058 60° Northeast 454 522 39,000  Level Memphis Center
11:17PM 34.2078 -93.1725 58° Northeast 459 528 39,000  Level Memphis Center
11:18PM 34.2736 -93.0264 61° Northeast 465 535 39,000  Level Memphis Center
11:19PM 34.3478 -92.8753 59° Northeast 472 543 39,000  Level Memphis Center
11:20PM 34.4153 -92.7261 61° Northeast 483 556 39,000  Level Memphis Center
11:21PM 34.4869 -92.5794 59° Northeast 493 567 39,000  Level Memphis Center
11:22PM 34.5583 -92.4275 60° Northeast 498 573 39,000  Level Memphis Center
11:23PM 34.6294 -92.2803 60° Northeast 498 573 39,000  Level Memphis Center
11:24PM 34.6983 -92.1431 59° Northeast 516 594 39,000  Level Memphis Center
11:25PM 34.7733 -91.9956 58° Northeast 509 586 39,000  Level Memphis Center
11:26PM 34.8461 -91.8525 58° Northeast 509 586 39,000  Level Memphis Center
11:27PM 34.9436 -91.7250 47° Northeast 509 586 39,000  Level Memphis Center
11:28PM 35.0594 -91.6306 34° Northeast 495 570 39,000  Level Memphis Center
11:29PM 35.1750 -91.5358 34° Northeast 495 570 39,000  Level Memphis Center
11:30PM 35.2906 -91.4433 33° Northeast 495 570 39,000  Level Memphis Center
11:31PM 35.4081 -91.3506 33° Northeast 495 570 39,000  Level Memphis Center
11:32PM 35.5361 -91.2500 33° Northeast 495 570 39,000  Level Memphis Center
11:33PM 35.6514 -91.1542 34° Northeast 500 575 39,000  Level Memphis Center
11:34PM 35.7500 -91.0706 35° Northeast 495 570 39,000  Level Memphis Center
11:35PM 35.8631 -90.9742 35° Northeast 490 564 39,000  Level Memphis Center
11:36PM 35.9803 -90.8803 33° Northeast 490 564 39,000  Level Memphis Center
11:37PM 36.0953 -90.7858 34° Northeast 490 564 39,000  Level Memphis Center
11:38PM 36.2103 -90.6914 34° Northeast 490 564 39,000  Level Memphis Center
11:39PM 36.3231 -90.5964 34° Northeast 490 564 39,000  Level Memphis Center
11:40PM 36.4400 -90.5014 33° Northeast 490 564 39,000  Level Memphis Center
11:41PM 36.5547 -90.4033 34° Northeast 490 564 39,000  Level Memphis Center
11:42PM 36.6694 -90.3103 33° Northeast 490 564 39,000  Level Memphis Center
11:45PM 36.9422 -90.0778 34° Northeast 492 566 39,000  Level Kansas City Center
11:46PM 37.0575 -89.9800 34° Northeast 492 566 39,000  Level Kansas City Center
11:47PM 37.1706 -89.8847 34° Northeast 492 566 39,000  Level Kansas City Center
11:48PM 37.2856 -89.7864 34° Northeast 492 566 39,000  Level Kansas City Center
11:49PM 37.3986 -89.6878 35° Northeast 492 566 39,000  Level Kansas City Center
11:50PM 37.5236 -89.5803 34° Northeast 492 566 39,000  Level Kansas City Center
11:51PM 37.6361 -89.4786 36° Northeast 492 566 39,000  Level Kansas City Center
11:52PM 37.7508 -89.3789 34° Northeast 492 566 39,000 -780 Level Kansas City Center
11:53PM 37.8492 -89.2906 35° Northeast 487 560 37,500 -1,620 Descending Kansas City Center
11:54PM 37.9717 -89.1844 34° Northeast 480 552 35,800 -1,260 Descending Kansas City Center
11:55PM 38.0739 -89.0928 35° Northeast 480 552 35,000 -420 Descending Kansas City Center
11:56PM 38.1942 -88.9836 35° Northeast 480 552 35,000  Level Kansas City Center
11:57PM 38.3106 -88.8850 34° Northeast 490 564 35,000  Level Kansas City Center
11:58PM 38.4242 -88.7783 36° Northeast 495 570 35,000  Level Kansas City Center
11:59PM 38.5283 -88.6878 34° Northeast 500 575 35,000  Level Kansas City Center
12:00AM 38.6564 -88.5767 34° Northeast 494 568 35,000  Level Kansas City Center
12:02AM 38.8681 -88.3797 36° Northeast 494 568 35,000  Level Indianapolis Center
12:03AM 38.9831 -88.2750 35° Northeast 499 574 35,000  Level Indianapolis Center
12:04AM 39.0997 -88.1706 35° Northeast 499 574 35,000 -120 Level Indianapolis Center
12:05AM 39.2186 -88.0628 35° Northeast 504 580 34,800 -960 Descending Indianapolis Center
12:06AM 39.3311 -87.9544 37° Northeast 510 587 33,100 -1,440 Descending Indianapolis Center
12:07AM 39.4497 -87.8517 34° Northeast 505 581 32,000 -1,560 Descending Indianapolis Center
12:08AM 39.5619 -87.7453 36° Northeast 505 581 30,000 -2,400 Descending Indianapolis Center
12:09AM 39.6719 -87.6383 37° Northeast 500 575 27,200 -3,120 Descending Indianapolis Center
12:10AM 39.7797 -87.5392 35° Northeast 487 560 23,800 -3,540 Descending Indianapolis Center
12:12AM 40.0308 -87.3192 34° Northeast 415 478 15,100 -3,360 Descending Chicago Center
12:13AM 40.1189 -87.3356 352° North 354 407 12,200 -2,700 Descending Chicago Center
12:14AM 40.1900 -87.3525 350° North 287 330 9,800 -2,280 Descending Chicago Center
12:15AM 40.2592 -87.3719 348° North 253 291 7,700 -1,800 Descending Chicago Center
12:16AM 40.3178 -87.3894 347° North 248 285 6,300 -1,560 Descending Chicago Center
12:17AM 40.3781 -87.3711 13° North 223 257 4,600 -1,680 Descending Chicago Center
12:18AM 40.4147 -87.3347 37° Northeast 179 206 3,000 -900 Descending Chicago Center
12:19AM 40.4347 -87.2769 66° East 179 206 2,900 -60 Descending Chicago Center
12:20AM 40.4458 -87.2111 77° East 179 206 2,900  Level Chicago Center
12:22AM 40.4221 -86.9849 98° East  Level FlightAware Approximate
12:29AM 40.4000 -86.9333 180° South  Level FlightAware Approximate
12:30AM 40.4123 -86.9369 180° South  Level Estimated
12:31AM 40.4123 -86.9369 180° South  Level Estimated
12:32AM 40.4123 -86.9369 180° South  Level Estimated